createdAt,value
2022-12-18T00:01:18.912Z,45.53
2022-12-18T00:03:48.511Z,49.90
2022-12-18T00:06:16.448Z,51.23
2022-12-18T00:08:44.314Z,58.30
2022-12-18T00:11:16.205Z,55.17
2022-12-18T00:13:44.669Z,54.47
2022-12-18T00:16:16.527Z,57.73
2022-12-18T00:18:45.464Z,65.23
2022-12-18T00:21:15.206Z,60.13
2022-12-18T00:23:44.934Z,65.57
2022-12-18T00:26:24.091Z,67.43
2022-12-18T00:28:52.882Z,62.17
2022-12-18T00:31:21.825Z,72.77
2022-12-18T00:33:54.125Z,64.90
2022-12-18T00:36:27.592Z,68.67
2022-12-18T00:38:56.478Z,66.03
2022-12-18T00:41:38.431Z,67.17
2022-12-18T00:44:06.767Z,67.63
2022-12-18T00:46:34.780Z,69.47
2022-12-18T00:49:02.720Z,63.77
2022-12-18T00:51:32.574Z,70.87
2022-12-18T00:54:00.655Z,65.93
2022-12-18T00:56:29.087Z,67.80
2022-12-18T00:58:57.044Z,74.30
2022-12-18T01:01:25.559Z,65.70
2022-12-18T01:03:53.695Z,68.60
2022-12-18T01:06:21.628Z,67.07
2022-12-18T01:08:50.847Z,66.33
2022-12-18T01:11:19.884Z,66.83
2022-12-18T01:13:48.097Z,60.53
2022-12-18T01:16:17.107Z,63.17
2022-12-18T01:18:49.219Z,64.43
2022-12-18T01:21:18.682Z,65.27
2022-12-18T01:23:58.307Z,62.87
2022-12-18T01:26:26.836Z,63.70
2022-12-18T01:28:58.695Z,60.70
2022-12-18T01:31:28.308Z,55.80
2022-12-18T01:33:56.724Z,56.43
2022-12-18T01:36:25.278Z,59.57
2022-12-18T01:38:56.172Z,57.70
2022-12-18T01:41:25.155Z,56.13
2022-12-18T01:43:55.099Z,55.90
2022-12-18T01:46:23.756Z,58.30
2022-12-18T01:48:52.989Z,58.13
2022-12-18T01:51:20.868Z,56.30
2022-12-18T01:53:48.905Z,53.83
2022-12-18T01:56:19.097Z,54.93
2022-12-18T01:58:53.123Z,50.23
2022-12-18T02:01:21.569Z,50.27
2022-12-18T02:03:50.112Z,54.43
2022-12-18T02:06:19.050Z,54.53
2022-12-18T02:08:53.333Z,50.40
2022-12-18T02:11:25.989Z,47.40
2022-12-18T02:13:58.402Z,49.13
2022-12-18T02:16:27.543Z,51.33
2022-12-18T02:18:58.707Z,51.07
2022-12-18T02:21:30.838Z,46.30
2022-12-18T02:23:59.630Z,49.17
2022-12-18T02:26:31.220Z,51.30
2022-12-18T02:29:01.687Z,48.97
2022-12-18T02:31:30.652Z,44.47
2022-12-18T02:33:59.756Z,43.60
2022-12-18T02:36:27.986Z,43.87
2022-12-18T02:38:55.793Z,50.27
2022-12-18T02:41:26.336Z,50.40
2022-12-18T02:43:58.822Z,44.60
2022-12-18T02:46:35.054Z,47.80
2022-12-18T02:49:08.402Z,44.87
2022-12-18T02:51:40.342Z,45.33
2022-12-18T02:54:10.737Z,44.57
2022-12-18T02:56:40.958Z,43.30
2022-12-18T02:59:11.518Z,42.30
2022-12-18T03:01:43.200Z,42.10
2022-12-18T03:04:13.769Z,40.87
2022-12-18T03:06:42.900Z,44.77
2022-12-18T03:09:12.819Z,39.07
2022-12-18T03:12:01.665Z,40.77
2022-12-18T03:14:32.003Z,38.53
2022-12-18T03:17:01.986Z,46.90
2022-12-18T03:19:30.437Z,39.57
2022-12-18T03:21:58.886Z,41.40
2022-12-18T03:24:27.390Z,44.77
2022-12-18T03:26:57.231Z,41.30
2022-12-18T03:29:26.812Z,38.63
2022-12-18T03:31:59.451Z,40.67
2022-12-18T03:34:28.948Z,43.47
2022-12-18T03:36:57.304Z,36.43
2022-12-18T03:39:25.503Z,37.50
2022-12-18T03:41:55.231Z,38.40
2022-12-18T03:44:25.508Z,37.33
2022-12-18T03:46:58.380Z,36.60
2022-12-18T03:49:27.736Z,38.50
2022-12-18T03:51:56.674Z,35.77
2022-12-18T03:54:24.454Z,39.30
2022-12-18T03:56:56.105Z,37.77
2022-12-18T03:59:23.956Z,40.83
2022-12-18T04:01:52.655Z,37.87
2022-12-18T04:04:21.967Z,38.37
2022-12-18T04:06:50.008Z,38.40
2022-12-18T04:09:17.874Z,35.27
2022-12-18T04:11:45.681Z,33.77
2022-12-18T04:14:17.699Z,40.80
2022-12-18T04:16:46.303Z,36.33
2022-12-18T04:19:14.639Z,37.90
2022-12-18T04:21:44.021Z,37.87
2022-12-18T04:24:12.471Z,30.57
2022-12-18T04:26:40.407Z,35.50
2022-12-18T04:29:08.705Z,34.27
2022-12-18T04:31:36.675Z,32.10
2022-12-18T04:34:05.191Z,34.33
2022-12-18T04:36:33.035Z,34.10
2022-12-18T04:39:02.323Z,37.70
2022-12-18T04:41:30.183Z,32.87
2022-12-18T04:43:58.067Z,29.30
2022-12-18T04:46:26.235Z,34.07
2022-12-18T04:48:53.969Z,34.97
2022-12-18T04:51:26.294Z,30.70
2022-12-18T04:53:54.777Z,37.07
2022-12-18T04:56:24.630Z,36.83
2022-12-18T04:58:52.601Z,32.30
2022-12-18T05:01:20.981Z,32.70
2022-12-18T05:03:49.000Z,31.33
2022-12-18T05:06:16.829Z,31.83
2022-12-18T05:08:44.736Z,30.03
2022-12-18T05:11:16.366Z,32.53
2022-12-18T05:13:46.041Z,31.43
2022-12-18T05:16:13.992Z,31.63
2022-12-18T05:18:42.283Z,28.73
2022-12-18T05:21:10.208Z,29.93
2022-12-18T05:23:39.166Z,29.10
2022-12-18T05:26:08.711Z,29.30
2022-12-18T05:28:37.633Z,27.40
2022-12-18T05:31:07.577Z,27.17
2022-12-18T05:33:36.135Z,29.60
2022-12-18T05:36:06.058Z,26.80
2022-12-18T05:38:34.484Z,29.20
2022-12-18T05:41:02.274Z,28.23
2022-12-18T05:43:30.043Z,28.77
2022-12-18T05:45:58.572Z,28.30
2022-12-18T05:48:27.894Z,25.70
2022-12-18T05:50:55.815Z,39.80
2022-12-18T05:53:24.099Z,26.70
2022-12-18T05:55:51.954Z,29.47
2022-12-18T05:58:20.243Z,24.70
2022-12-18T06:00:48.175Z,31.87
2022-12-18T06:03:16.730Z,23.70
2022-12-18T06:05:46.546Z,31.30
2022-12-18T06:08:14.381Z,26.63
2022-12-18T06:10:42.460Z,27.97
2022-12-18T06:13:10.297Z,27.80
2022-12-18T06:15:39.195Z,26.27
2022-12-18T06:18:07.049Z,25.70
2022-12-18T06:20:37.883Z,30.50
2022-12-18T06:23:07.103Z,28.97
2022-12-18T06:25:35.582Z,25.47
2022-12-18T06:28:03.501Z,25.00
2022-12-18T06:30:31.818Z,22.70
2022-12-18T06:32:59.702Z,21.37
2022-12-18T06:35:28.073Z,23.80
2022-12-18T06:37:56.004Z,27.03
2022-12-18T06:40:25.720Z,19.97
2022-12-18T06:42:53.731Z,22.27
2022-12-18T06:45:23.239Z,23.30
2022-12-18T06:47:50.992Z,27.43
2022-12-18T06:50:18.834Z,21.07
2022-12-18T06:52:47.028Z,25.63
2022-12-18T06:55:14.784Z,25.50
2022-12-18T06:57:44.344Z,26.73
2022-12-18T07:00:12.961Z,23.43
2022-12-18T07:02:41.913Z,20.43
2022-12-18T07:05:11.111Z,21.03
2022-12-18T07:07:39.418Z,20.40
2022-12-18T07:10:07.714Z,22.67
2022-12-18T07:12:35.858Z,21.00
2022-12-18T07:15:05.761Z,18.83
2022-12-18T07:17:33.925Z,22.30
2022-12-18T07:20:01.950Z,20.83
2022-12-18T07:22:30.227Z,21.30
2022-12-18T07:24:58.113Z,21.87
2022-12-18T07:27:26.290Z,23.10
2022-12-18T07:29:54.130Z,19.60
2022-12-18T07:32:23.709Z,22.50
2022-12-18T07:34:51.474Z,20.93
2022-12-18T07:37:19.693Z,20.67
2022-12-18T07:39:47.582Z,19.57
2022-12-18T07:42:33.441Z,18.07
2022-12-18T07:45:02.018Z,20.10
2022-12-18T07:47:36.009Z,20.20
2022-12-18T07:50:03.984Z,16.47
2022-12-18T07:52:31.669Z,20.90
2022-12-18T07:55:00.400Z,20.13
2022-12-18T07:57:49.553Z,17.10
2022-12-18T08:00:17.483Z,19.57
2022-12-18T08:02:47.340Z,20.57
2022-12-18T08:05:16.704Z,17.17
2022-12-18T08:07:44.988Z,20.47
2022-12-18T08:10:12.805Z,18.07
2022-12-18T08:12:40.712Z,18.80
2022-12-18T08:15:09.888Z,17.90
2022-12-18T08:17:37.683Z,19.53
2022-12-18T08:20:08.047Z,18.40
2022-12-18T08:22:36.462Z,17.27
2022-12-18T08:25:06.473Z,18.00
2022-12-18T08:27:34.545Z,17.20
2022-12-18T08:30:02.898Z,18.70
2022-12-18T08:32:30.763Z,18.47
2022-12-18T08:34:58.752Z,16.30
2022-12-18T08:37:28.071Z,17.20
2022-12-18T08:39:56.420Z,17.73
2022-12-18T08:42:41.835Z,18.13
2022-12-18T08:45:10.735Z,17.13
2022-12-18T08:47:38.616Z,18.30
2022-12-18T08:50:07.347Z,14.30
2022-12-18T08:52:36.766Z,16.60
2022-12-18T08:55:08.442Z,16.30
2022-12-18T08:57:36.384Z,15.40
2022-12-18T09:00:04.896Z,14.60
2022-12-18T09:02:33.138Z,16.40
2022-12-18T09:05:02.649Z,16.77
2022-12-18T09:07:30.493Z,17.20
2022-12-18T09:09:59.806Z,15.20
2022-12-18T09:12:27.968Z,14.73
2022-12-18T09:14:57.786Z,15.07
2022-12-18T09:17:27.739Z,12.37
2022-12-18T09:19:55.918Z,14.63
2022-12-18T09:22:24.285Z,17.00
2022-12-18T09:24:52.344Z,13.93
2022-12-18T09:27:22.357Z,15.30
2022-12-18T09:29:50.511Z,16.10
2022-12-18T09:32:22.343Z,16.20
2022-12-18T09:34:50.700Z,15.03
2022-12-18T09:37:19.094Z,16.03
2022-12-18T09:39:47.014Z,16.30
2022-12-18T09:42:19.894Z,13.43
2022-12-18T09:44:51.509Z,15.13
2022-12-18T09:47:20.767Z,15.63
2022-12-18T09:49:49.495Z,16.07
2022-12-18T09:52:19.810Z,15.10
2022-12-18T09:54:50.270Z,15.67
2022-12-18T09:57:19.425Z,13.67
2022-12-18T09:59:51.265Z,12.97
2022-12-18T10:02:20.750Z,13.90
2022-12-18T10:04:52.996Z,13.73
2022-12-18T10:07:23.428Z,13.90
2022-12-18T10:09:53.669Z,12.37
2022-12-18T10:12:23.482Z,13.37
2022-12-18T10:14:53.904Z,15.53
2022-12-18T10:17:27.029Z,13.13
2022-12-18T10:19:57.345Z,11.63
2022-12-18T10:22:33.010Z,13.03
2022-12-18T10:25:03.974Z,14.10
2022-12-18T10:27:31.912Z,12.27
2022-12-18T10:30:02.954Z,12.47
2022-12-18T10:32:32.271Z,15.13
2022-12-18T10:35:01.290Z,11.10
2022-12-18T10:37:30.276Z,12.60
2022-12-18T10:40:11.024Z,13.60
2022-12-18T10:42:40.708Z,9.90
2022-12-18T10:45:14.185Z,11.90
2022-12-18T10:47:44.661Z,13.80
2022-12-18T10:50:20.814Z,10.13
2022-12-18T10:52:55.766Z,10.30
2022-12-18T10:55:23.480Z,10.43
2022-12-18T10:57:51.664Z,10.87
2022-12-18T11:00:26.062Z,12.27
2022-12-18T11:02:54.510Z,10.90
2022-12-18T11:05:28.746Z,11.97
2022-12-18T11:07:57.182Z,10.50
2022-12-18T11:10:27.402Z,11.67
2022-12-18T11:12:57.558Z,11.00
2022-12-18T11:15:29.139Z,11.60
2022-12-18T11:17:57.087Z,10.43
2022-12-18T11:20:33.946Z,11.40
2022-12-18T11:23:02.612Z,10.33
2022-12-18T11:25:33.246Z,10.47
2022-12-18T11:28:02.708Z,10.00
2022-12-18T11:30:32.662Z,13.40
2022-12-18T11:33:05.438Z,11.40
2022-12-18T11:35:39.545Z,11.30
2022-12-18T11:38:12.563Z,10.87
2022-12-18T11:40:41.902Z,10.10
2022-12-18T11:43:11.906Z,18.53
2022-12-18T11:45:44.142Z,18.90
2022-12-18T11:48:17.340Z,19.20
2022-12-18T11:50:49.417Z,15.53
2022-12-18T11:53:17.758Z,15.07
2022-12-18T11:55:52.437Z,17.60
2022-12-18T11:58:31.388Z,27.27
2022-12-18T12:01:11.868Z,15.53
2022-12-18T12:04:07.783Z,16.23
2022-12-18T12:06:38.857Z,12.80
2022-12-18T12:09:10.772Z,15.50
2022-12-18T12:11:44.763Z,17.80
2022-12-18T12:14:24.003Z,13.50
2022-12-18T12:16:55.628Z,15.40
2022-12-18T12:19:36.983Z,11.77
2022-12-18T12:22:10.962Z,20.33
2022-12-18T12:24:43.481Z,18.77
2022-12-18T12:27:15.832Z,20.20
2022-12-18T12:29:50.435Z,19.87
2022-12-18T12:32:25.031Z,18.10
2022-12-18T12:35:01.774Z,11.70
2022-12-18T12:37:37.333Z,28.43
2022-12-18T12:40:26.827Z,30.90
2022-12-18T12:43:14.021Z,38.97
2022-12-18T12:45:44.801Z,26.27
2022-12-18T12:48:18.460Z,19.60
2022-12-18T12:50:46.492Z,18.87
2022-12-18T12:53:20.262Z,16.30
2022-12-18T12:55:47.948Z,15.87
2022-12-18T12:58:17.834Z,15.30
2022-12-18T13:00:49.228Z,17.30
2022-12-18T13:03:24.502Z,19.77
2022-12-18T13:05:55.902Z,16.17
2022-12-18T13:08:27.509Z,12.73
2022-12-18T13:11:13.809Z,18.23
2022-12-18T13:13:52.825Z,15.00
2022-12-18T13:16:21.308Z,13.90
2022-12-18T13:18:53.952Z,15.00
2022-12-18T13:21:25.437Z,14.60
2022-12-18T13:23:53.258Z,10.40
2022-12-18T13:26:36.849Z,19.23
2022-12-18T13:29:09.708Z,11.60
2022-12-18T13:32:26.299Z,11.63
2022-12-18T13:35:33.162Z,8.30
2022-12-18T13:38:02.624Z,15.70
2022-12-18T13:40:59.042Z,16.23
2022-12-18T13:43:36.331Z,9.80
2022-12-18T13:46:21.895Z,9.93
2022-12-18T13:48:55.481Z,12.20
2022-12-18T13:51:24.256Z,14.07
2022-12-18T13:53:54.843Z,11.27
2022-12-18T13:56:25.137Z,10.73
2022-12-18T13:59:18.542Z,12.87
2022-12-18T14:02:28.006Z,12.87
2022-12-18T14:04:56.538Z,13.80
2022-12-18T14:07:26.206Z,14.47
2022-12-18T14:10:12.562Z,15.30
2022-12-18T14:13:03.195Z,14.30
2022-12-18T14:15:34.285Z,12.73
2022-12-18T14:18:04.400Z,21.00
2022-12-18T14:20:37.034Z,16.03
2022-12-18T14:23:33.641Z,14.63
2022-12-18T14:26:24.749Z,16.50
2022-12-18T14:28:55.075Z,20.43
2022-12-18T14:31:23.992Z,15.90
2022-12-18T14:33:52.671Z,18.93
2022-12-18T14:36:24.656Z,15.53
2022-12-18T14:38:58.379Z,18.27
2022-12-18T14:41:28.922Z,18.43
2022-12-18T14:43:57.548Z,18.50
2022-12-18T14:46:31.336Z,18.30
2022-12-18T14:48:59.906Z,19.00
2022-12-18T14:51:28.071Z,18.43
2022-12-18T14:53:57.209Z,17.13
2022-12-18T14:56:28.297Z,19.10
2022-12-18T14:58:57.658Z,23.23
2022-12-18T15:01:28.417Z,15.60
2022-12-18T15:03:57.130Z,16.63
2022-12-18T15:06:31.294Z,17.50
2022-12-18T15:09:01.043Z,16.03
2022-12-18T15:11:37.156Z,18.17
2022-12-18T15:14:24.319Z,16.00
2022-12-18T15:16:54.548Z,15.40
2022-12-18T15:19:22.753Z,15.20
2022-12-18T15:21:50.844Z,16.80
2022-12-18T15:24:20.287Z,16.77
2022-12-18T15:26:51.280Z,23.20
2022-12-18T15:29:20.935Z,15.57
2022-12-18T15:32:01.136Z,16.53
2022-12-18T15:34:29.327Z,19.23
2022-12-18T15:36:57.919Z,13.97
2022-12-18T15:39:25.858Z,15.87
2022-12-18T15:42:13.008Z,13.17
2022-12-18T15:44:40.773Z,14.53
2022-12-18T15:47:12.727Z,15.10
2022-12-18T15:49:40.726Z,15.30
2022-12-18T15:52:10.665Z,12.80
2022-12-18T15:54:56.037Z,15.43
2022-12-18T15:57:25.629Z,12.33
2022-12-18T15:59:54.747Z,12.27
2022-12-18T16:02:24.658Z,11.50
2022-12-18T16:04:53.153Z,12.07
2022-12-18T16:07:25.627Z,14.07
2022-12-18T16:09:54.358Z,14.10
2022-12-18T16:12:27.477Z,13.00
2022-12-18T16:14:55.773Z,11.97
2022-12-18T16:17:24.361Z,12.93
2022-12-18T16:19:53.453Z,13.70
2022-12-18T16:22:23.746Z,14.50
2022-12-18T16:24:51.807Z,11.83
2022-12-18T16:27:19.760Z,13.23
2022-12-18T16:29:48.910Z,13.40
2022-12-18T16:32:18.052Z,15.33
2022-12-18T16:34:46.564Z,17.20
2022-12-18T16:37:15.254Z,12.60
2022-12-18T16:39:43.786Z,14.13
2022-12-18T16:42:15.549Z,15.40
2022-12-18T16:44:43.913Z,11.77
2022-12-18T16:47:13.417Z,14.13
2022-12-18T16:49:43.435Z,15.97
2022-12-18T16:52:11.219Z,13.57
2022-12-18T16:54:39.008Z,13.93
2022-12-18T16:57:07.411Z,14.23
2022-12-18T16:59:35.322Z,14.70
2022-12-18T17:02:04.135Z,15.83
2022-12-18T17:04:33.805Z,15.20
2022-12-18T17:07:02.000Z,16.07
2022-12-18T17:09:29.937Z,14.23
2022-12-18T17:11:59.674Z,16.93
2022-12-18T17:14:30.543Z,14.37
2022-12-18T17:17:20.250Z,14.73
2022-12-18T17:19:49.183Z,14.87
2022-12-18T17:22:17.039Z,15.43
2022-12-18T17:24:51.547Z,14.40
2022-12-18T17:27:20.014Z,13.20
2022-12-18T17:29:50.010Z,15.00
2022-12-18T17:32:18.907Z,15.73
2022-12-18T17:34:50.189Z,14.63
2022-12-18T17:37:20.068Z,16.43
2022-12-18T17:39:48.202Z,13.40
2022-12-18T17:42:16.911Z,16.97
2022-12-18T17:44:45.024Z,11.80
2022-12-18T17:47:16.316Z,15.53
2022-12-18T17:49:44.564Z,13.40
2022-12-18T17:52:12.854Z,13.83
2022-12-18T17:54:44.593Z,12.77
2022-12-18T17:57:13.108Z,12.43
2022-12-18T17:59:44.072Z,13.50
2022-12-18T18:02:12.617Z,15.77
2022-12-18T18:04:41.746Z,12.53
2022-12-18T18:07:12.289Z,17.47
2022-12-18T18:09:42.646Z,12.00
2022-12-18T18:12:30.524Z,13.20
2022-12-18T18:15:02.664Z,10.80
2022-12-18T18:17:34.910Z,13.00
2022-12-18T18:20:03.999Z,13.63
2022-12-18T18:22:35.541Z,12.80
2022-12-18T18:25:05.876Z,13.30
2022-12-18T18:27:38.520Z,15.33
2022-12-18T18:30:08.248Z,10.80
2022-12-18T18:32:39.647Z,10.47
2022-12-18T18:35:19.368Z,10.40
2022-12-18T18:37:52.769Z,11.40
2022-12-18T18:40:23.671Z,12.13
2022-12-18T18:42:56.045Z,10.83
2022-12-18T18:45:24.482Z,12.07
2022-12-18T18:48:19.028Z,9.73
2022-12-18T18:50:56.968Z,11.60
2022-12-18T18:53:25.151Z,12.30
2022-12-18T18:56:26.118Z,11.80
2022-12-18T18:58:45.919Z,17.73
2022-12-18T19:01:20.823Z,11.27
2022-12-18T19:04:04.199Z,13.17
2022-12-18T19:06:32.455Z,9.60
2022-12-18T19:09:04.211Z,17.00
2022-12-18T19:11:51.331Z,11.53
2022-12-18T19:14:32.945Z,10.90
2022-12-18T19:17:03.759Z,11.13
2022-12-18T19:19:40.326Z,13.23
2022-12-18T19:22:10.517Z,17.10
2022-12-18T19:24:55.144Z,13.83
2022-12-18T19:27:26.230Z,11.07
2022-12-18T19:29:54.389Z,12.83
2022-12-18T19:32:25.870Z,10.93
2022-12-18T19:34:55.089Z,11.80
2022-12-18T19:37:30.160Z,12.37
2022-12-18T19:39:58.630Z,14.70
2022-12-18T19:42:35.224Z,12.37
2022-12-18T19:45:06.409Z,11.60
2022-12-18T19:47:34.718Z,11.13
2022-12-18T19:50:03.219Z,12.57
2022-12-18T19:53:02.051Z,11.83
2022-12-18T19:55:30.762Z,8.67
2022-12-18T19:58:21.429Z,10.90
2022-12-18T20:00:53.512Z,10.70
2022-12-18T20:03:32.781Z,11.47
2022-12-18T20:06:11.602Z,10.90
2022-12-18T20:08:41.262Z,10.40
2022-12-18T20:11:09.751Z,11.23
2022-12-18T20:13:39.788Z,12.03
2022-12-18T20:16:10.760Z,12.57
2022-12-18T20:18:38.987Z,12.20
2022-12-18T20:21:13.616Z,11.67
2022-12-18T20:23:44.644Z,9.50
2022-12-18T20:26:16.099Z,10.90
2022-12-18T20:28:45.862Z,11.60
2022-12-18T20:31:14.257Z,10.73
2022-12-18T20:33:43.131Z,10.23
2022-12-18T20:36:15.339Z,11.70
2022-12-18T20:38:44.679Z,12.10
2022-12-18T20:41:17.183Z,9.73
2022-12-18T20:43:47.653Z,15.63
2022-12-18T20:46:17.365Z,11.10
2022-12-18T20:48:45.666Z,12.30
2022-12-18T20:51:14.382Z,11.33
2022-12-18T20:53:42.663Z,11.73
2022-12-18T20:56:12.139Z,12.00
2022-12-18T20:58:45.846Z,11.90
2022-12-18T21:01:16.757Z,11.43
2022-12-18T21:03:46.021Z,12.93
2022-12-18T21:06:14.433Z,11.07
2022-12-18T21:08:42.586Z,13.43
2022-12-18T21:11:35.382Z,11.37
2022-12-18T21:14:03.233Z,10.57
2022-12-18T21:16:32.568Z,10.60
2022-12-18T21:19:00.600Z,12.63
2022-12-18T21:21:29.037Z,10.97
2022-12-18T21:23:57.223Z,12.40
2022-12-18T21:26:25.908Z,10.40
2022-12-18T21:28:54.336Z,10.20
2022-12-18T21:31:23.413Z,10.93
2022-12-18T21:33:56.479Z,9.23
2022-12-18T21:36:36.335Z,9.60
2022-12-18T21:39:04.984Z,8.60
2022-12-18T21:41:50.684Z,11.20
2022-12-18T21:44:22.709Z,9.90
2022-12-18T21:46:56.924Z,10.93
2022-12-18T21:49:27.638Z,10.67
2022-12-18T21:51:57.838Z,10.30
2022-12-18T21:54:26.307Z,9.70
2022-12-18T21:56:55.485Z,10.83
2022-12-18T21:59:27.113Z,11.83
2022-12-18T22:01:56.541Z,12.30
2022-12-18T22:04:24.956Z,11.00
2022-12-18T22:06:55.263Z,11.60
2022-12-18T22:09:24.083Z,8.93
2022-12-18T22:11:52.557Z,12.93
2022-12-18T22:14:20.462Z,11.40
2022-12-18T22:16:48.288Z,9.27
2022-12-18T22:19:18.007Z,9.43
2022-12-18T22:21:46.961Z,11.70
2022-12-18T22:24:17.312Z,11.03
2022-12-18T22:26:45.299Z,13.50
2022-12-18T22:29:37.547Z,9.63
2022-12-18T22:32:05.719Z,10.40
2022-12-18T22:34:36.562Z,12.07
2022-12-18T22:37:04.795Z,11.47
2022-12-18T22:39:34.315Z,10.63
2022-12-18T22:42:02.498Z,10.57
2022-12-18T22:44:30.825Z,12.20
2022-12-18T22:47:05.343Z,12.67
2022-12-18T22:49:35.658Z,11.30
2022-12-18T22:52:03.872Z,12.97
2022-12-18T22:54:32.984Z,10.47
2022-12-18T22:57:00.767Z,13.93
2022-12-18T22:59:29.104Z,12.93
2022-12-18T23:01:58.821Z,10.53
2022-12-18T23:04:35.916Z,15.00
2022-12-18T23:07:04.817Z,14.57
2022-12-18T23:09:34.369Z,13.20
2022-12-18T23:12:02.465Z,12.90
2022-12-18T23:14:30.530Z,13.43
2022-12-18T23:16:58.601Z,15.20
2022-12-18T23:19:26.549Z,13.20
2022-12-18T23:21:58.252Z,16.13
2022-12-18T23:24:26.554Z,14.33
2022-12-18T23:26:55.782Z,11.97
2022-12-18T23:29:23.568Z,13.47
2022-12-18T23:31:51.398Z,13.83
2022-12-18T23:34:19.204Z,13.90
2022-12-18T23:36:49.173Z,15.70
2022-12-18T23:39:29.076Z,14.70
2022-12-18T23:41:59.548Z,16.83
2022-12-18T23:44:27.380Z,14.60
2022-12-18T23:46:55.544Z,13.17
2022-12-18T23:49:23.747Z,15.47
2022-12-18T23:51:51.531Z,16.60
2022-12-18T23:54:25.290Z,16.40
2022-12-18T23:57:02.398Z,15.57
2022-12-18T23:59:30.141Z,18.00
